Time;durP1;ratioP1;P1;durP2;ratioP2;P2;SDS_P1;SDS_P2;PMS_P1;PMS_P2;Temp;Humidity;BMP_temperature;BMP_pressure;BME280_temperature;BME280_humidity;BME280_pressure;Samples;Min_cycle;Max_cycle;Signal;HPM_P1;HPM_P2
2022/11/04 00:01:33;;;;;;;31.10;18.88;;;16.20;99.90;;;;;;5075677;28;20099;-69
2022/11/04 00:03:59;;;;;;;22.85;18.17;;;16.20;99.90;;;;;;5075905;28;20020;-69
2022/11/04 00:06:25;;;;;;;28.27;18.65;;;16.20;99.90;;;;;;5075531;28;20095;-70
2022/11/04 00:08:52;;;;;;;25.85;18.77;;;16.20;99.90;;;;;;5075518;28;20028;-70
2022/11/04 00:14:04;;;;;;;31.33;19.92;;;16.20;99.90;;;;;;5075759;28;20031;-70
2022/11/04 00:19:14;;;;;;;31.55;19.02;;;16.20;99.90;;;;;;5076051;28;20070;-70
2022/11/04 00:29:56;;;;;;;29.65;19.38;;;16.20;99.90;;;;;;5075810;28;20063;-70
2022/11/04 00:35:07;;;;;;;28.02;18.40;;;16.20;99.90;;;;;;5075629;28;20078;-70
2022/11/04 00:37:37;;;;;;;29.48;19.52;;;16.20;99.90;;;;;;5074980;28;20062;-70
2022/11/04 00:40:04;;;;;;;30.33;18.90;;;16.20;99.90;;;;;;5074025;28;20020;-70
2022/11/04 00:42:30;;;;;;;28.02;19.13;;;16.20;99.90;;;;;;5075202;28;20024;-70
2022/11/04 00:44:56;;;;;;;28.38;18.92;;;16.20;99.90;;;;;;5075372;28;20553;-70
2022/11/04 00:47:21;;;;;;;29.40;19.20;;;16.20;99.90;;;;;;5074883;28;20036;-70
2022/11/04 00:49:47;;;;;;;27.35;19.35;;;16.20;99.90;;;;;;5074913;28;20417;-70
2022/11/04 00:52:12;;;;;;;23.58;18.65;;;16.20;99.90;;;;;;5075173;28;20481;-70
2022/11/04 00:54:38;;;;;;;31.58;20.88;;;16.20;99.90;;;;;;5073769;28;20351;-69
2022/11/04 00:57:04;;;;;;;28.55;20.25;;;16.10;99.90;;;;;;5075170;28;20398;-70
2022/11/04 00:59:29;;;;;;;22.73;18.40;;;16.10;99.90;;;;;;5075148;28;20105;-70
2022/11/04 01:01:55;;;;;;;28.63;19.40;;;16.10;99.90;;;;;;5075016;28;20017;-70
2022/11/04 01:04:21;;;;;;;24.05;18.27;;;16.10;99.90;;;;;;5074915;28;20024;-70
2022/11/04 01:06:47;;;;;;;32.42;21.02;;;16.20;99.90;;;;;;5074677;28;20064;-70
2022/11/04 01:09:13;;;;;;;28.60;19.30;;;16.10;99.90;;;;;;5075001;28;20016;-69
2022/11/04 01:11:39;;;;;;;29.33;19.70;;;16.10;99.90;;;;;;5074703;28;20469;-70
2022/11/04 01:14:04;;;;;;;26.95;18.05;;;16.10;99.90;;;;;;5074411;28;20059;-70
2022/11/04 01:16:30;;;;;;;27.50;19.33;;;16.20;99.90;;;;;;5074819;28;20024;-70
2022/11/04 01:18:56;;;;;;;28.08;18.90;;;16.20;99.90;;;;;;5074636;28;20020;-69
2022/11/04 01:21:22;;;;;;;28.13;19.42;;;16.20;99.90;;;;;;5074426;28;20043;-70
2022/11/04 01:23:48;;;;;;;26.80;18.80;;;16.10;99.90;;;;;;5074531;28;20033;-70
2022/11/04 01:26:18;;;;;;;24.92;17.92;;;16.10;99.90;;;;;;5074321;28;20029;-69
2022/11/04 01:28:44;;;;;;;28.67;17.60;;;16.10;99.90;;;;;;5074578;28;20058;-70
2022/11/04 01:31:12;;;;;;;24.23;17.30;;;16.10;99.90;;;;;;5074432;28;20028;-69
2022/11/04 01:33:39;;;;;;;25.15;15.88;;;16.10;99.90;;;;;;5074299;28;20356;-70
2022/11/04 01:36:06;;;;;;;22.63;15.48;;;16.10;99.90;;;;;;5074109;28;20486;-70
2022/11/04 01:38:32;;;;;;;24.35;16.38;;;16.10;99.90;;;;;;5073898;28;20021;-70
2022/11/04 01:40:58;;;;;;;25.52;16.73;;;16.10;99.90;;;;;;5074191;28;20020;-69
2022/11/04 01:43:47;;;;;;;24.77;14.77;;;16.10;99.80;;;;;;5074310;28;20036;-70
2022/11/04 01:46:21;;;;;;;22.58;14.05;;;16.10;99.80;;;;;;5073902;28;20429;-70
2022/11/04 01:48:48;;;;;;;21.75;14.52;;;16.10;99.70;;;;;;5073919;28;20039;-70
2022/11/04 01:51:14;;;;;;;19.73;14.10;;;16.10;99.50;;;;;;5073733;28;20024;-70
2022/11/04 01:53:42;;;;;;;21.63;13.23;;;16.10;99.60;;;;;;5073977;28;20031;-69
2022/11/04 01:56:11;;;;;;;23.23;13.20;;;16.10;99.50;;;;;;5073799;28;20049;-70
2022/11/04 01:58:42;;;;;;;19.63;12.45;;;16.10;99.50;;;;;;5072060;28;20120;-70
2022/11/04 02:01:11;;;;;;;17.83;12.23;;;16.10;99.50;;;;;;5071062;28;20028;-70
2022/11/04 02:04:24;;;;;;;19.73;11.80;;;16.00;99.50;;;;;;5070792;28;20103;-70
2022/11/04 02:06:46;;;;;;;23.25;12.15;;;16.10;99.60;;;;;;5072963;28;20049;-70
2022/11/04 02:09:13;;;;;;;18.08;12.60;;;16.10;99.70;;;;;;5073446;28;20489;-70
2022/11/04 02:14:23;;;;;;;20.33;12.40;;;16.00;99.80;;;;;;5073214;28;20028;-70
2022/11/04 02:16:49;;;;;;;16.83;11.43;;;16.00;99.90;;;;;;5073089;28;20032;-70
2022/11/04 02:19:47;;;;;;;13.27;10.40;;;16.00;99.90;;;;;;5073232;28;20024;-70
2022/11/04 02:22:31;;;;;;;17.85;10.48;;;16.10;99.80;;;;;;5071493;28;20513;-70
2022/11/04 02:25:08;;;;;;;21.40;10.77;;;16.10;99.90;;;;;;5073320;28;20509;-70
2022/11/04 02:27:59;;;;;;;20.05;10.88;;;16.00;99.90;;;;;;5071512;28;20064;-70
2022/11/04 02:30:27;;;;;;;20.13;11.25;;;16.00;99.90;;;;;;5071907;28;20078;-71
2022/11/04 02:33:12;;;;;;;19.42;11.32;;;16.00;99.90;;;;;;5073029;28;20027;-70
2022/11/04 02:36:00;;;;;;;16.40;11.38;;;16.00;99.90;;;;;;5072795;28;20036;-70
2022/11/04 02:38:52;;;;;;;15.20;9.98;;;16.10;99.90;;;;;;5072844;28;20433;-69
2022/11/04 02:41:44;;;;;;;18.27;10.40;;;16.00;99.90;;;;;;5073312;28;20051;-70
2022/11/04 02:44:36;;;;;;;19.92;10.38;;;16.00;99.90;;;;;;5073706;28;20029;-70
2022/11/04 02:47:14;;;;;;;17.35;10.15;;;16.10;99.90;;;;;;5072752;28;20044;-70
2022/11/04 02:49:51;;;;;;;12.50;8.95;;;16.00;99.90;;;;;;5072387;28;20067;-70
2022/11/04 02:52:38;;;;;;;12.90;8.35;;;16.00;99.90;;;;;;5073003;28;20016;-69
2022/11/04 02:55:13;;;;;;;16.33;8.45;;;16.00;99.90;;;;;;5072687;28;20405;-70
2022/11/04 02:57:41;;;;;;;15.82;7.80;;;16.10;99.90;;;;;;5073162;28;20537;-70
2022/11/04 03:00:09;;;;;;;19.88;7.85;;;16.10;99.90;;;;;;5072969;28;20382;-70
2022/11/04 03:02:49;;;;;;;13.30;7.43;;;16.10;99.90;;;;;;5073167;28;20017;-69
2022/11/04 03:05:25;;;;;;;9.80;6.05;;;16.10;99.90;;;;;;5073123;28;20095;-70
2022/11/04 03:07:52;;;;;;;18.73;6.95;;;16.10;99.90;;;;;;5072735;28;20029;-70
2022/11/04 03:10:43;;;;;;;12.35;6.65;;;16.20;99.90;;;;;;5073062;28;20038;-70
2022/11/04 03:13:27;;;;;;;13.20;6.18;;;16.20;99.90;;;;;;5072504;28;20486;-69
2022/11/04 03:16:02;;;;;;;14.57;5.88;;;16.20;99.90;;;;;;5072801;28;20024;-70
2022/11/04 03:18:42;;;;;;;16.58;5.97;;;16.20;99.90;;;;;;5072751;28;20123;-71
2022/11/04 03:21:12;;;;;;;10.95;5.90;;;16.20;99.90;;;;;;5072471;28;20024;-69
2022/11/04 03:23:39;;;;;;;14.25;5.95;;;16.20;99.90;;;;;;5072588;28;20104;-69
2022/11/04 03:26:21;;;;;;;12.43;5.70;;;16.20;99.90;;;;;;5072767;28;20114;-69
2022/11/04 03:29:12;;;;;;;9.38;5.65;;;16.20;99.90;;;;;;5072993;28;20028;-70
2022/11/04 03:32:07;;;;;;;11.82;5.30;;;16.20;99.90;;;;;;5072871;28;20056;-70
2022/11/04 03:34:34;;;;;;;12.85;5.40;;;16.20;99.90;;;;;;5071517;28;20040;-70
2022/11/04 03:37:00;;;;;;;9.98;4.95;;;16.10;99.90;;;;;;5072565;28;20029;-70
2022/11/04 03:39:26;;;;;;;12.95;5.22;;;16.20;99.90;;;;;;5072726;28;20104;-70
2022/11/04 03:41:55;;;;;;;13.60;4.90;;;16.20;99.90;;;;;;5072440;28;20027;-70
2022/11/04 03:44:22;;;;;;;9.98;5.07;;;16.20;99.90;;;;;;5072126;28;20068;-70
2022/11/04 03:46:49;;;;;;;12.00;6.03;;;16.20;99.90;;;;;;5072327;28;20037;-70
2022/11/04 03:49:15;;;;;;;10.77;4.82;;;16.10;99.90;;;;;;5072282;28;20482;-70
2022/11/04 03:51:40;;;;;;;10.88;4.57;;;16.20;99.90;;;;;;5072406;28;20031;-70
2022/11/04 03:54:06;;;;;;;6.53;4.10;;;16.20;99.90;;;;;;5072572;28;20107;-70
2022/11/04 03:56:50;;;;;;;8.10;4.15;;;16.20;99.90;;;;;;5072280;28;20098;-70
2022/11/04 03:59:27;;;;;;;11.93;5.00;;;16.20;99.90;;;;;;5071366;28;20032;-70
2022/11/04 04:01:55;;;;;;;9.65;5.20;;;16.20;99.80;;;;;;5075753;28;20121;-70
2022/11/04 04:04:31;;;;;;;10.70;4.85;;;16.20;99.70;;;;;;5075862;28;20078;-70
2022/11/04 04:07:15;;;;;;;14.32;4.85;;;16.30;99.60;;;;;;5076367;28;20040;-70
2022/11/04 04:09:48;;;;;;;10.40;5.65;;;16.20;99.50;;;;;;5075894;28;20025;-70
2022/11/04 04:12:39;;;;;;;14.40;6.45;;;16.20;99.60;;;;;;5075977;28;20035;-70
2022/11/04 04:15:16;;;;;;;14.55;5.57;;;16.20;99.70;;;;;;5075730;28;20509;-70
2022/11/04 04:17:51;;;;;;;7.40;4.80;;;16.20;99.90;;;;;;5076016;28;20025;-69
2022/11/04 04:20:22;;;;;;;11.43;5.57;;;16.20;99.90;;;;;;5075925;28;20033;-70
2022/11/04 04:22:54;;;;;;;7.38;5.20;;;16.10;99.90;;;;;;5075667;28;20031;-70
2022/11/04 04:28:11;;;;;;;10.25;5.72;;;16.10;99.90;;;;;;5075719;28;20067;-70
2022/11/04 04:30:38;;;;;;;10.77;6.20;;;16.10;99.90;;;;;;5075445;28;20047;-70
2022/11/04 04:33:16;;;;;;;12.82;5.85;;;16.10;99.90;;;;;;5075423;28;20380;-70
2022/11/04 04:35:53;;;;;;;13.32;5.68;;;16.10;99.90;;;;;;5075504;28;20021;-70
2022/11/04 04:47:03;;;;;;;10.82;5.68;;;16.10;99.90;;;;;;5075334;28;20083;-69
2022/11/04 04:49:33;;;;;;;11.85;5.00;;;16.10;99.90;;;;;;5075265;28;20082;-70
2022/11/04 04:52:00;;;;;;;8.77;4.05;;;16.10;99.90;;;;;;5075359;28;20421;-69
2022/11/04 04:54:26;;;;;;;10.60;5.10;;;16.10;99.90;;;;;;5075117;28;20017;-69
2022/11/04 04:56:52;;;;;;;6.82;4.38;;;16.10;99.90;;;;;;5074936;28;20053;-70
2022/11/04 04:59:18;;;;;;;7.93;4.10;;;16.10;99.90;;;;;;5075083;28;20440;-70
2022/11/04 05:01:44;;;;;;;11.90;4.45;;;16.10;99.90;;;;;;5075245;28;20029;-70
2022/11/04 05:04:09;;;;;;;7.90;4.50;;;16.10;99.90;;;;;;5074944;28;20025;-70
2022/11/04 05:06:35;;;;;;;8.82;4.30;;;16.10;99.90;;;;;;5073612;28;20086;-70
2022/11/04 05:09:00;;;;;;;8.45;4.30;;;16.10;99.90;;;;;;5075213;28;20029;-70
2022/11/04 05:11:26;;;;;;;9.85;3.92;;;16.00;99.90;;;;;;5074970;28;20087;-70
2022/11/04 05:13:52;;;;;;;15.05;4.22;;;16.00;99.90;;;;;;5074442;28;20028;-70
2022/11/04 05:16:17;;;;;;;10.85;3.97;;;16.00;99.90;;;;;;5075222;28;20035;-69
2022/11/04 05:18:43;;;;;;;9.07;4.10;;;16.00;99.90;;;;;;5074444;28;20028;-70
2022/11/04 05:21:12;;;;;;;9.07;4.40;;;16.00;99.90;;;;;;5074544;28;20029;-70
2022/11/04 05:23:38;;;;;;;5.53;3.72;;;16.00;99.90;;;;;;5074445;28;20055;-71
2022/11/04 05:26:04;;;;;;;11.50;3.88;;;16.00;99.90;;;;;;5074347;28;20047;-69
2022/11/04 05:28:30;;;;;;;5.45;3.28;;;16.00;99.90;;;;;;5074657;28;20040;-69
2022/11/04 05:30:56;;;;;;;9.95;4.35;;;16.00;99.90;;;;;;5074618;28;20059;-70
2022/11/04 05:33:22;;;;;;;9.10;3.80;;;16.00;99.90;;;;;;5074445;28;20028;-70
2022/11/04 05:35:47;;;;;;;8.77;3.30;;;16.00;99.90;;;;;;5074475;28;20028;-70
2022/11/04 05:38:13;;;;;;;10.60;3.92;;;15.90;99.90;;;;;;5074042;28;20036;-70
2022/11/04 05:40:38;;;;;;;7.40;4.60;;;15.90;99.90;;;;;;5074159;28;20023;-69
2022/11/04 05:43:04;;;;;;;10.10;3.75;;;15.90;99.90;;;;;;5072653;28;20056;-70
2022/11/04 05:45:30;;;;;;;5.65;3.15;;;15.90;99.90;;;;;;5072903;28;20020;-69
2022/11/04 05:48:00;;;;;;;9.55;3.58;;;15.90;99.90;;;;;;5073186;28;20036;-69
2022/11/04 05:50:26;;;;;;;6.82;3.03;;;15.80;99.90;;;;;;5073976;28;20028;-70
2022/11/04 05:52:51;;;;;;;8.63;3.40;;;15.80;99.90;;;;;;5073676;28;20378;-70
2022/11/04 05:55:17;;;;;;;10.10;3.13;;;15.80;99.90;;;;;;5073256;28;20048;-69
2022/11/04 05:57:42;;;;;;;10.23;3.58;;;15.80;99.90;;;;;;5073409;28;20019;-69
2022/11/04 06:00:10;;;;;;;8.10;3.67;;;15.80;99.90;;;;;;5073311;28;20494;-70
2022/11/04 06:02:35;;;;;;;8.77;3.65;;;15.80;99.90;;;;;;5072999;28;20474;-70
2022/11/04 06:05:01;;;;;;;8.32;3.53;;;15.80;99.90;;;;;;5073420;28;20035;-69
2022/11/04 06:07:27;;;;;;;13.05;3.72;;;15.80;99.90;;;;;;5073066;28;20576;-69
2022/11/04 06:09:52;;;;;;;8.95;3.22;;;15.80;99.90;;;;;;5073141;28;20027;-70
2022/11/04 06:12:18;;;;;;;10.00;3.22;;;15.80;99.90;;;;;;5073185;28;20020;-70
2022/11/04 06:14:44;;;;;;;12.73;3.25;;;15.90;99.90;;;;;;5073266;28;20136;-69
2022/11/04 06:17:18;;;;;;;14.65;3.83;;;15.90;99.90;;;;;;5072706;28;20094;-70
2022/11/04 06:19:44;;;;;;;11.43;3.45;;;15.90;99.90;;;;;;5072956;28;20024;-69
2022/11/04 06:22:17;;;;;;;13.38;3.60;;;15.90;99.90;;;;;;5072945;28;20108;-70
2022/11/04 06:24:43;;;;;;;11.93;3.95;;;15.90;99.90;;;;;;5072511;28;20029;-69
2022/11/04 06:27:10;;;;;;;12.02;3.85;;;15.90;99.90;;;;;;5073248;28;20105;-69
2022/11/04 06:29:40;;;;;;;13.35;3.95;;;15.90;99.90;;;;;;5073068;28;20025;-68
2022/11/04 06:32:14;;;;;;;11.98;4.00;;;15.90;99.90;;;;;;5073211;28;20090;-69
2022/11/04 06:34:40;;;;;;;10.52;3.13;;;15.90;99.90;;;;;;5073183;28;20054;-70
2022/11/04 06:37:06;;;;;;;9.55;3.72;;;16.00;99.90;;;;;;5072842;28;20028;-70
2022/11/04 06:39:32;;;;;;;11.90;4.10;;;15.90;99.90;;;;;;5072823;28;20036;-70
2022/11/04 06:41:58;;;;;;;10.48;3.67;;;16.00;99.90;;;;;;5071247;28;20111;-69
2022/11/04 06:44:24;;;;;;;13.73;3.75;;;16.00;99.90;;;;;;5072086;28;20475;-69
2022/11/04 06:46:49;;;;;;;13.95;4.13;;;16.00;99.90;;;;;;5072295;28;20040;-69
2022/11/04 06:49:18;;;;;;;15.32;4.35;;;16.00;99.90;;;;;;5071996;28;20020;-69
2022/11/04 06:51:45;;;;;;;12.10;4.43;;;16.00;99.90;;;;;;5072393;28;20098;-70
2022/11/04 06:54:11;;;;;;;13.48;4.07;;;16.00;99.90;;;;;;5071786;28;20046;-69
2022/11/04 06:56:36;;;;;;;15.07;4.20;;;16.00;99.90;;;;;;5071543;28;20060;-69
2022/11/04 06:59:02;;;;;;;13.35;4.00;;;16.00;99.90;;;;;;5071902;28;20028;-69
2022/11/04 07:01:32;;;;;;;10.55;3.83;;;16.10;99.90;;;;;;5070773;28;20115;-69
2022/11/04 07:03:59;;;;;;;11.90;4.20;;;16.10;99.90;;;;;;5071816;28;20082;-70
2022/11/04 07:06:27;;;;;;;9.82;3.85;;;16.00;99.90;;;;;;5071791;28;20111;-70
2022/11/04 07:08:57;;;;;;;11.82;3.88;;;16.00;99.90;;;;;;5071962;28;20041;-69
2022/11/04 07:11:23;;;;;;;13.38;4.28;;;16.10;99.90;;;;;;5070862;28;20028;-69
2022/11/04 07:13:49;;;;;;;9.20;3.65;;;16.10;99.90;;;;;;5071739;28;20048;-70
2022/11/04 07:16:16;;;;;;;12.30;3.85;;;16.10;99.90;;;;;;5072036;28;20090;-70
2022/11/04 07:18:41;;;;;;;16.42;4.43;;;16.10;99.90;;;;;;5072073;28;20036;-70
2022/11/04 07:21:08;;;;;;;11.82;4.93;;;16.10;99.90;;;;;;5071719;28;20028;-69
2022/11/04 07:23:34;;;;;;;13.52;4.57;;;16.10;99.90;;;;;;5071878;28;20107;-70
2022/11/04 07:26:00;;;;;;;15.80;5.10;;;16.10;99.90;;;;;;5071739;28;20441;-69
2022/11/04 07:28:26;;;;;;;14.10;4.43;;;16.10;99.90;;;;;;5072009;28;20036;-69
2022/11/04 07:30:55;;;;;;;13.80;4.55;;;16.10;99.90;;;;;;5071832;28;20029;-70
2022/11/04 07:33:20;;;;;;;11.30;4.55;;;16.10;99.90;;;;;;5071969;28;20428;-70
2022/11/04 07:35:46;;;;;;;15.50;5.88;;;16.10;99.90;;;;;;5074052;28;20020;-70
2022/11/04 07:38:12;;;;;;;15.73;5.53;;;16.10;99.90;;;;;;5074285;28;20370;-69
2022/11/04 07:40:38;;;;;;;15.75;5.03;;;16.10;99.90;;;;;;5075569;28;20137;-69
2022/11/04 07:43:04;;;;;;;17.25;4.82;;;16.10;99.90;;;;;;5075771;28;20162;-71
2022/11/04 07:45:29;;;;;;;12.52;4.47;;;16.10;99.90;;;;;;5037836;28;20135;-69
2022/11/04 07:47:56;;;;;;;15.65;5.38;;;16.10;99.90;;;;;;5054936;28;20044;-69
2022/11/04 07:50:22;;;;;;;14.18;5.32;;;16.10;99.90;;;;;;5055505;28;20025;-70
2022/11/04 07:52:49;;;;;;;11.45;4.80;;;16.20;99.90;;;;;;5056127;28;20498;-70
2022/11/04 07:55:17;;;;;;;19.38;5.15;;;16.20;99.90;;;;;;5055772;28;20414;-70
2022/11/04 07:57:46;;;;;;;18.73;5.45;;;16.20;99.90;;;;;;5055910;28;20530;-70
2022/11/04 08:00:14;;;;;;;17.35;4.90;;;16.30;99.90;;;;;;5055909;28;20032;-71
2022/11/04 08:02:41;;;;;;;15.13;5.28;;;16.30;99.90;;;;;;5055941;28;20090;-71
2022/11/04 08:05:07;;;;;;;16.77;5.72;;;16.30;99.90;;;;;;5055966;28;20024;-70
2022/11/04 08:07:33;;;;;;;17.13;5.88;;;16.30;99.90;;;;;;5055218;28;20040;-71
2022/11/04 08:09:58;;;;;;;12.57;5.30;;;16.40;99.90;;;;;;5056056;28;20029;-72
2022/11/04 08:12:26;;;;;;;28.92;6.30;;;16.40;99.90;;;;;;5055766;28;20371;-70
2022/11/04 08:14:52;;;;;;;18.20;6.22;;;16.50;99.90;;;;;;5056011;28;20104;-68
2022/11/04 08:17:17;;;;;;;18.95;6.30;;;16.50;99.90;;;;;;5055767;28;20512;-69
2022/11/04 08:19:43;;;;;;;18.80;5.72;;;16.60;99.90;;;;;;5055500;28;20025;-70
2022/11/04 08:22:09;;;;;;;19.00;5.68;;;16.60;99.90;;;;;;5055397;28;20025;-70
2022/11/04 08:24:34;;;;;;;18.38;5.95;;;16.60;99.90;;;;;;5055403;28;20033;-70
2022/11/04 08:27:01;;;;;;;18.88;6.03;;;16.60;99.90;;;;;;5055173;28;20032;-73
2022/11/04 08:29:27;;;;;;;20.90;5.85;;;16.70;99.90;;;;;;5054856;28;20017;-71
